createdAt,value
2022-11-24T00:01:10.000Z,96710.78
2022-11-24T00:03:37.072Z,96713.72
2022-11-24T00:06:08.975Z,96719.97
2022-11-24T00:08:36.999Z,96718.91
2022-11-24T00:11:09.286Z,96710.84
2022-11-24T00:13:39.053Z,96712.75
2022-11-24T00:16:18.008Z,96703.94
2022-11-24T00:18:46.672Z,96711.84
2022-11-24T00:21:15.439Z,96714.78
2022-11-24T00:23:42.854Z,96709.50
2022-11-24T00:26:15.291Z,96704.31
2022-11-24T00:28:43.111Z,96691.78
2022-11-24T00:31:23.609Z,96705.91
2022-11-24T00:33:52.472Z,96714.56
2022-11-24T00:36:20.456Z,96708.16
2022-11-24T00:38:48.197Z,96706.53
2022-11-24T00:41:14.831Z,96699.91
2022-11-24T00:43:41.541Z,96712.78
2022-11-24T00:46:08.579Z,96717.63
2022-11-24T00:48:35.404Z,96728.28
2022-11-24T00:51:06.159Z,96725.66
2022-11-24T00:53:33.440Z,96718.00
2022-11-24T00:56:00.367Z,96712.28
2022-11-24T00:58:27.075Z,96731.94
2022-11-24T01:00:53.740Z,96732.56
2022-11-24T01:03:21.069Z,96741.81
2022-11-24T01:05:48.447Z,96749.06
2022-11-24T01:08:15.259Z,96755.81
2022-11-24T01:10:42.197Z,96754.97
2022-11-24T01:13:08.851Z,96747.00
2022-11-24T01:15:36.419Z,96756.00
2022-11-24T01:18:04.307Z,96748.56
2022-11-24T01:20:31.583Z,96749.59
2022-11-24T01:22:58.541Z,96752.53
2022-11-24T01:25:25.165Z,96762.03
2022-11-24T01:27:51.864Z,96753.34
2022-11-24T01:30:18.961Z,96752.13
2022-11-24T01:32:45.604Z,96761.19
2022-11-24T01:35:12.331Z,96766.84
2022-11-24T01:37:39.466Z,96762.47
2022-11-24T01:40:06.865Z,96765.16
2022-11-24T01:42:48.477Z,96770.31
2022-11-24T01:45:35.849Z,96769.47
2022-11-24T01:48:07.729Z,96776.75
2022-11-24T01:50:36.276Z,96784.75
2022-11-24T01:53:04.409Z,96789.13
2022-11-24T01:55:36.512Z,96790.16
2022-11-24T01:58:05.613Z,96793.22
2022-11-24T02:00:34.629Z,96788.34
2022-11-24T02:03:01.405Z,96790.03
2022-11-24T02:05:40.280Z,96788.38
2022-11-24T02:08:15.224Z,96792.13
2022-11-24T02:10:42.969Z,96786.94
2022-11-24T02:13:09.671Z,96776.59
2022-11-24T02:15:36.372Z,96778.97
2022-11-24T02:18:03.140Z,96776.94
2022-11-24T02:20:29.768Z,96785.47
2022-11-24T02:23:14.923Z,96786.13
2022-11-24T02:26:09.725Z,96795.25
2022-11-24T02:28:36.923Z,96798.34
2022-11-24T02:31:05.489Z,96791.44
2022-11-24T02:33:34.355Z,96797.28
2022-11-24T02:36:00.988Z,96798.53
2022-11-24T02:38:34.790Z,96794.72
2022-11-24T02:41:07.512Z,96795.53
2022-11-24T02:43:39.383Z,96799.81
2022-11-24T02:46:06.864Z,96800.00
2022-11-24T02:48:33.841Z,96797.63
2022-11-24T02:51:00.472Z,96799.75
2022-11-24T02:53:27.106Z,96803.81
2022-11-24T02:55:53.757Z,96815.63
2022-11-24T02:58:20.521Z,96813.78
2022-11-24T03:00:48.421Z,96811.72
2022-11-24T03:03:15.106Z,96820.81
2022-11-24T03:05:41.782Z,96815.13
2022-11-24T03:08:08.413Z,96806.84
2022-11-24T03:10:35.052Z,96829.53
2022-11-24T03:13:01.700Z,96829.44
2022-11-24T03:15:28.361Z,96818.06
2022-11-24T03:17:56.746Z,96825.94
2022-11-24T03:20:24.308Z,96832.66
2022-11-24T03:22:51.028Z,96828.13
2022-11-24T03:25:18.279Z,96833.09
2022-11-24T03:27:45.295Z,96845.72
2022-11-24T03:30:12.759Z,96852.69
2022-11-24T03:32:39.593Z,96854.75
2022-11-24T03:35:06.460Z,96851.00
2022-11-24T03:37:33.087Z,96849.63
2022-11-24T03:39:59.787Z,96846.44
2022-11-24T03:42:26.457Z,96850.97
2022-11-24T03:44:53.133Z,96857.00
2022-11-24T03:47:19.777Z,96856.56
2022-11-24T03:49:46.404Z,96868.91
2022-11-24T03:52:13.179Z,96864.31
2022-11-24T03:54:39.856Z,96857.81
2022-11-24T03:57:06.427Z,96864.34
2022-11-24T03:59:33.301Z,96867.97
2022-11-24T04:01:59.976Z,96863.50
2022-11-24T04:04:26.658Z,96864.53
2022-11-24T04:06:53.391Z,96869.84
2022-11-24T04:09:20.183Z,96870.84
2022-11-24T04:12:05.467Z,96881.00
2022-11-24T04:14:32.314Z,96885.69
2022-11-24T04:16:59.351Z,96882.09
2022-11-24T04:19:26.036Z,96881.50
2022-11-24T04:21:52.641Z,96886.69
2022-11-24T04:24:19.514Z,96883.97
2022-11-24T04:26:46.120Z,96894.13
2022-11-24T04:29:12.828Z,96882.22
2022-11-24T04:31:39.748Z,96895.81
2022-11-24T04:34:06.491Z,96896.84
2022-11-24T04:36:33.288Z,96890.41
2022-11-24T04:39:25.423Z,96894.75
2022-11-24T04:41:47.623Z,96908.84
2022-11-24T04:44:14.718Z,96905.84
2022-11-24T04:46:41.408Z,96905.13
2022-11-24T04:49:11.626Z,96910.41
2022-11-24T04:51:39.830Z,96916.84
2022-11-24T04:54:11.934Z,96923.69
2022-11-24T04:56:39.121Z,96928.88
2022-11-24T04:59:08.502Z,96931.56
2022-11-24T05:01:35.456Z,96939.34
2022-11-24T05:04:02.191Z,96928.78
2022-11-24T05:06:28.938Z,96922.66
2022-11-24T05:08:55.593Z,96914.28
2022-11-24T05:11:22.221Z,96933.75
2022-11-24T05:13:48.840Z,96927.75
2022-11-24T05:16:15.785Z,96935.31
2022-11-24T05:18:42.594Z,96952.94
2022-11-24T05:21:09.331Z,96933.75
2022-11-24T05:23:36.029Z,96939.78
2022-11-24T05:26:03.798Z,96948.28
2022-11-24T05:28:30.850Z,96967.13
2022-11-24T05:31:02.519Z,96971.59
2022-11-24T05:33:30.188Z,96963.84
2022-11-24T05:36:01.505Z,96959.25
2022-11-24T05:38:30.194Z,96971.09
2022-11-24T05:41:04.851Z,96971.31
2022-11-24T05:43:32.362Z,96970.06
2022-11-24T05:46:00.533Z,96975.75
2022-11-24T05:48:27.589Z,96977.84
2022-11-24T05:50:58.134Z,96977.75
2022-11-24T05:53:26.930Z,96975.16
2022-11-24T05:55:53.835Z,96984.78
2022-11-24T05:58:20.708Z,96984.03
2022-11-24T06:00:47.400Z,96988.38
2022-11-24T06:03:14.159Z,96984.13
2022-11-24T06:05:45.416Z,96979.59
2022-11-24T06:08:12.095Z,96981.59
2022-11-24T06:10:38.921Z,96989.22
2022-11-24T06:13:06.940Z,96990.16
2022-11-24T06:15:35.590Z,96999.75
2022-11-24T06:18:02.194Z,97004.38
2022-11-24T06:20:32.687Z,97009.47
2022-11-24T06:23:01.179Z,97004.28
2022-11-24T06:25:29.134Z,97006.03
2022-11-24T06:27:56.233Z,97012.56
2022-11-24T06:30:22.866Z,97013.00
2022-11-24T06:32:50.184Z,97007.69
2022-11-24T06:35:17.305Z,97004.66
2022-11-24T06:37:44.196Z,97004.22
2022-11-24T06:40:11.102Z,96996.31
2022-11-24T06:42:38.094Z,97012.09
2022-11-24T06:45:09.119Z,97010.03
2022-11-24T06:47:36.721Z,97009.94
2022-11-24T06:50:03.746Z,97006.41
2022-11-24T06:52:30.752Z,97021.03
2022-11-24T06:54:57.416Z,97031.84
2022-11-24T06:57:24.103Z,97035.97
2022-11-24T06:59:50.803Z,97040.53
2022-11-24T07:02:17.426Z,97042.00
2022-11-24T07:04:44.077Z,97054.22
2022-11-24T07:07:10.945Z,97060.66
2022-11-24T07:09:37.641Z,97056.94
2022-11-24T07:12:05.906Z,97064.50
2022-11-24T07:14:33.308Z,97056.34
2022-11-24T07:17:02.501Z,97069.19
2022-11-24T07:19:29.399Z,97076.44
2022-11-24T07:21:56.229Z,97077.69
2022-11-24T07:24:22.925Z,97084.06
2022-11-24T07:26:49.596Z,97091.81
2022-11-24T07:29:16.232Z,97096.06
2022-11-24T07:31:43.281Z,97087.38
2022-11-24T07:34:10.120Z,97080.13
2022-11-24T07:36:36.753Z,97098.63
2022-11-24T07:39:06.537Z,97078.22
2022-11-24T07:41:33.212Z,97099.91
2022-11-24T07:43:59.809Z,97089.16
2022-11-24T07:46:26.495Z,97094.03
2022-11-24T07:48:53.161Z,97090.22
2022-11-24T07:51:19.860Z,97082.75
2022-11-24T07:53:46.659Z,97096.63
2022-11-24T07:56:13.391Z,97096.19
2022-11-24T07:58:40.149Z,97110.50
2022-11-24T08:01:15.014Z,97107.69
2022-11-24T08:03:43.020Z,97115.16
2022-11-24T08:06:30.085Z,97116.44
2022-11-24T08:08:57.338Z,97123.59
2022-11-24T08:11:24.860Z,97125.50
2022-11-24T08:13:51.823Z,97126.97
2022-11-24T08:16:20.467Z,97126.56
2022-11-24T08:18:53.319Z,97128.44
2022-11-24T08:21:20.736Z,97127.38
2022-11-24T08:23:47.360Z,97125.41
2022-11-24T08:26:18.062Z,97118.78
2022-11-24T08:28:48.042Z,97132.81
2022-11-24T08:31:18.661Z,97127.59
2022-11-24T08:33:46.360Z,97127.28
2022-11-24T08:36:18.313Z,97124.13
2022-11-24T08:38:46.500Z,97134.06
2022-11-24T08:41:15.983Z,97144.78
2022-11-24T08:43:43.179Z,97144.59
2022-11-24T08:46:13.175Z,97154.81
2022-11-24T08:48:40.017Z,97161.44
2022-11-24T08:51:12.276Z,97148.38
2022-11-24T08:53:39.685Z,97144.56
2022-11-24T08:56:07.427Z,97148.16
2022-11-24T08:58:34.655Z,97158.78
2022-11-24T09:01:19.677Z,97152.75
2022-11-24T09:03:51.421Z,97155.53
2022-11-24T09:06:23.013Z,97161.72
2022-11-24T09:08:49.997Z,97150.91
2022-11-24T09:11:17.249Z,97144.28
2022-11-24T09:13:44.803Z,97138.56
2022-11-24T09:16:21.190Z,97139.13
2022-11-24T09:18:48.625Z,97134.06
2022-11-24T09:21:19.812Z,97150.50
2022-11-24T09:23:51.202Z,97151.97
2022-11-24T09:26:29.589Z,97152.66
2022-11-24T09:28:57.663Z,97148.47
2022-11-24T09:31:26.831Z,97141.50
2022-11-24T09:33:54.231Z,97161.88
2022-11-24T09:36:21.844Z,97166.09
2022-11-24T09:38:51.217Z,97156.97
2022-11-24T09:41:17.842Z,97158.91
2022-11-24T09:43:57.332Z,97160.97
2022-11-24T09:46:34.708Z,97158.34
2022-11-24T09:49:04.822Z,97153.75
2022-11-24T09:51:32.565Z,97151.84
2022-11-24T09:54:11.489Z,97152.78
2022-11-24T09:56:40.700Z,97167.91
2022-11-24T09:59:12.840Z,97176.03
2022-11-24T10:01:42.224Z,97174.13
2022-11-24T10:04:45.672Z,97145.53
2022-11-24T10:07:15.130Z,97149.22
2022-11-24T10:10:00.546Z,97162.31
2022-11-24T10:12:47.830Z,97155.91
2022-11-24T10:15:22.429Z,97150.78
2022-11-24T10:18:13.244Z,97156.88
2022-11-24T10:21:01.778Z,97168.84
2022-11-24T10:23:39.936Z,97169.09
2022-11-24T10:26:19.810Z,97175.06
2022-11-24T10:28:54.742Z,97176.38
2022-11-24T10:31:40.760Z,97177.44
2022-11-24T10:34:25.609Z,97177.94
2022-11-24T10:36:57.356Z,97172.88
2022-11-24T10:39:35.012Z,97176.94
2022-11-24T10:42:18.067Z,97175.72
2022-11-24T10:44:44.949Z,97172.22
2022-11-24T10:47:22.832Z,97172.88
2022-11-24T10:50:02.080Z,97176.31
2022-11-24T10:52:32.733Z,97175.31
2022-11-24T10:55:01.861Z,97155.66
2022-11-24T10:57:39.293Z,97139.16
2022-11-24T11:00:21.196Z,97146.84
2022-11-24T11:02:49.054Z,97149.59
2022-11-24T11:05:42.374Z,97143.28
2022-11-24T11:08:19.970Z,97145.25
2022-11-24T11:10:49.842Z,97156.16
2022-11-24T11:13:27.654Z,97159.16
2022-11-24T11:15:55.956Z,97162.28
2022-11-24T11:18:29.891Z,97147.78
2022-11-24T11:20:58.852Z,97152.94
2022-11-24T11:23:29.008Z,97163.09
2022-11-24T11:26:19.954Z,97159.50
2022-11-24T11:34:53.505Z,97160.91
2022-11-24T11:37:21.899Z,97163.34
2022-11-24T11:39:50.896Z,97163.19
2022-11-24T11:45:21.539Z,97161.38
2022-11-24T11:47:57.340Z,97160.16
2022-11-24T11:50:30.244Z,97161.56
2022-11-24T11:53:25.759Z,97146.41
2022-11-24T11:56:01.628Z,97146.72
2022-11-24T11:58:31.488Z,97158.13
2022-11-24T12:01:22.660Z,97154.59
2022-11-24T12:03:49.349Z,97148.09
2022-11-24T12:06:22.424Z,97155.94
2022-11-24T12:09:29.155Z,97155.31
2022-11-24T12:12:23.871Z,97159.16
2022-11-24T12:14:56.687Z,97152.78
2022-11-24T12:17:40.456Z,97155.94
2022-11-24T12:20:44.844Z,97145.63
2022-11-24T12:23:30.048Z,97150.72
2022-11-24T12:26:15.556Z,97154.84
2022-11-24T12:29:02.607Z,97155.06
2022-11-24T12:31:59.397Z,97156.28
2022-11-24T12:34:32.009Z,97157.03
2022-11-24T12:37:08.813Z,97163.69
2022-11-24T12:39:40.388Z,97158.34
2022-11-24T12:42:52.363Z,97165.09
2022-11-24T12:45:28.520Z,97168.16
2022-11-24T12:48:30.381Z,97180.72
2022-11-24T12:50:58.546Z,97183.59
2022-11-24T12:53:33.668Z,97176.75
2022-11-24T12:56:10.773Z,97191.97
2022-11-24T12:59:05.714Z,97187.31
2022-11-24T13:02:01.758Z,97188.09
2022-11-24T13:04:40.060Z,97182.75
2022-11-24T13:07:14.670Z,97185.47
2022-11-24T13:10:18.778Z,97180.06
2022-11-24T13:13:03.584Z,97175.50
2022-11-24T13:15:45.534Z,97176.47
2022-11-24T13:18:50.403Z,97177.69
2022-11-24T13:21:42.821Z,97178.53
2022-11-24T13:24:19.882Z,97172.75
2022-11-24T13:26:48.632Z,97172.34
2022-11-24T13:29:27.780Z,97171.38
2022-11-24T13:32:15.618Z,97160.50
2022-11-24T13:34:49.913Z,97157.16
2022-11-24T13:37:29.080Z,97156.56
2022-11-24T13:40:14.254Z,97166.13
2022-11-24T13:43:03.327Z,97162.63
2022-11-24T13:45:39.299Z,97162.38
2022-11-24T13:48:21.641Z,97164.53
2022-11-24T13:50:53.196Z,97168.34
2022-11-24T13:53:36.884Z,97158.25
2022-11-24T13:56:20.082Z,97168.53
2022-11-24T13:58:54.755Z,97175.22
2022-11-24T14:01:28.403Z,97180.25
2022-11-24T14:04:34.197Z,97171.78
2022-11-24T14:07:08.996Z,97185.06
2022-11-24T14:09:40.246Z,97193.34
2022-11-24T14:12:17.364Z,97190.69
2022-11-24T14:14:46.268Z,97185.03
2022-11-24T14:17:20.529Z,97180.66
2022-11-24T14:19:49.872Z,97188.47
2022-11-24T14:22:39.396Z,97187.38
2022-11-24T14:25:07.995Z,97192.47
2022-11-24T14:27:37.087Z,97187.47
2022-11-24T14:30:09.515Z,97192.63
2022-11-24T14:32:37.922Z,97200.75
2022-11-24T14:35:28.402Z,97200.69
2022-11-24T14:37:55.875Z,97208.81
2022-11-24T14:40:45.233Z,97210.09
2022-11-24T14:43:27.028Z,97211.50
2022-11-24T14:45:56.934Z,97211.22
2022-11-24T14:48:27.298Z,97219.25
2022-11-24T14:51:04.197Z,97217.84
2022-11-24T14:53:31.148Z,97211.78
2022-11-24T14:56:16.464Z,97212.03
2022-11-24T14:58:43.387Z,97221.38
2022-11-24T15:01:18.870Z,97227.94
2022-11-24T15:03:46.337Z,97224.84
2022-11-24T15:06:20.777Z,97233.50
2022-11-24T15:08:49.849Z,97234.53
2022-11-24T15:11:16.508Z,97235.31
2022-11-24T15:13:54.049Z,97232.19
2022-11-24T15:16:24.072Z,97238.56
2022-11-24T15:19:01.567Z,97245.28
2022-11-24T15:21:31.913Z,97240.34
2022-11-24T15:24:17.084Z,97249.66
2022-11-24T15:26:45.228Z,97246.56
2022-11-24T15:29:12.968Z,97252.81
2022-11-24T15:31:41.420Z,97259.47
2022-11-24T15:34:13.954Z,97264.47
2022-11-24T15:36:40.910Z,97269.00
2022-11-24T15:39:07.543Z,97259.19
2022-11-24T15:41:34.759Z,97261.91
2022-11-24T15:44:01.767Z,97275.47
2022-11-24T15:46:30.231Z,97278.66
2022-11-24T15:48:57.312Z,97279.53
2022-11-24T15:51:26.697Z,97289.72
2022-11-24T15:54:00.384Z,97297.69
2022-11-24T15:56:36.509Z,97294.97
2022-11-24T15:59:03.858Z,97300.28
2022-11-24T16:01:32.959Z,97302.91
2022-11-24T16:04:01.699Z,97304.19
2022-11-24T16:06:28.665Z,97299.44
2022-11-24T16:08:55.366Z,97295.38
2022-11-24T16:11:22.844Z,97304.06
2022-11-24T16:13:53.444Z,97315.91
2022-11-24T16:16:22.750Z,97316.47
2022-11-24T16:18:49.769Z,97321.31
2022-11-24T16:21:16.575Z,97324.66
2022-11-24T16:23:43.284Z,97327.97
2022-11-24T16:26:10.835Z,97320.16
2022-11-24T16:28:37.439Z,97324.22
2022-11-24T16:31:04.668Z,97325.47
2022-11-24T16:33:31.703Z,97337.94
2022-11-24T16:35:58.734Z,97337.34
2022-11-24T16:38:25.531Z,97343.50
2022-11-24T16:40:54.015Z,97339.59
2022-11-24T16:43:20.762Z,97344.09
2022-11-24T16:46:01.387Z,97337.34
2022-11-24T16:48:28.084Z,97338.50
2022-11-24T16:50:55.321Z,97343.84
2022-11-24T16:53:21.975Z,97356.56
2022-11-24T16:55:57.021Z,97357.97
2022-11-24T16:58:24.203Z,97359.41
2022-11-24T17:00:51.042Z,97373.50
2022-11-24T17:03:17.661Z,97374.22
2022-11-24T17:05:44.917Z,97377.63
2022-11-24T17:08:11.533Z,97378.25
2022-11-24T17:10:38.724Z,97386.16
2022-11-24T17:13:05.966Z,97389.72
2022-11-24T17:15:36.627Z,97395.16
2022-11-24T17:18:24.064Z,97394.44
2022-11-24T17:20:51.509Z,97385.91
2022-11-24T17:23:19.752Z,97394.56
2022-11-24T17:25:48.337Z,97391.56
2022-11-24T17:28:16.855Z,97401.72
2022-11-24T17:30:43.546Z,97417.38
2022-11-24T17:33:10.644Z,97409.25
2022-11-24T17:35:37.637Z,97404.72
2022-11-24T17:38:04.554Z,97423.34
2022-11-24T17:40:31.307Z,97415.03
2022-11-24T17:42:59.848Z,97406.81
2022-11-24T17:45:32.024Z,97405.03
2022-11-24T17:48:00.740Z,97417.19
2022-11-24T17:50:27.394Z,97418.88
2022-11-24T17:52:54.433Z,97418.69
2022-11-24T17:55:21.792Z,97424.56
2022-11-24T17:57:48.399Z,97419.34
2022-11-24T18:00:15.678Z,97412.91
2022-11-24T18:02:42.312Z,97424.66
2022-11-24T18:05:09.605Z,97430.81
2022-11-24T18:07:37.073Z,97437.91
2022-11-24T18:10:04.968Z,97433.97
2022-11-24T18:12:32.610Z,97446.06
2022-11-24T18:14:59.863Z,97444.00
2022-11-24T18:17:26.532Z,97460.16
2022-11-24T18:19:53.221Z,97459.41
2022-11-24T18:22:36.710Z,97449.63
2022-11-24T18:25:07.203Z,97455.28
2022-11-24T18:27:33.843Z,97451.97
2022-11-24T18:30:01.318Z,97450.28
2022-11-24T18:32:27.968Z,97471.50
2022-11-24T18:34:55.223Z,97468.63
2022-11-24T18:37:21.896Z,97467.34
2022-11-24T18:39:48.563Z,97471.63
2022-11-24T18:42:15.660Z,97476.94
2022-11-24T18:44:42.748Z,97476.13
2022-11-24T18:47:09.429Z,97482.97
2022-11-24T18:49:36.267Z,97483.59
2022-11-24T18:52:03.003Z,97483.00
2022-11-24T18:54:30.317Z,97483.91
2022-11-24T18:57:01.837Z,97485.06
2022-11-24T18:59:30.045Z,97484.31
2022-11-24T19:01:58.014Z,97492.88
2022-11-24T19:04:26.364Z,97489.75
2022-11-24T19:06:53.007Z,97489.94
2022-11-24T19:09:22.571Z,97499.63
2022-11-24T19:11:49.436Z,97512.63
2022-11-24T19:14:19.172Z,97515.22
2022-11-24T19:16:51.320Z,97510.03
2022-11-24T19:19:18.210Z,97507.41
2022-11-24T19:21:45.184Z,97508.16
2022-11-24T19:24:17.724Z,97515.34
2022-11-24T19:26:44.533Z,97510.66
2022-11-24T19:29:11.813Z,97510.66
2022-11-24T19:31:39.934Z,97526.28
2022-11-24T19:34:08.171Z,97543.31
2022-11-24T19:36:37.603Z,97539.31
2022-11-24T19:39:05.700Z,97535.47
2022-11-24T19:41:34.167Z,97544.22
2022-11-24T19:44:03.102Z,97547.19
2022-11-24T19:46:31.791Z,97560.50
2022-11-24T19:49:01.243Z,97557.44
2022-11-24T19:51:34.261Z,97566.56
2022-11-24T19:54:02.052Z,97561.66
2022-11-24T19:56:32.331Z,97576.44
2022-11-24T19:58:59.025Z,97577.38
2022-11-24T20:01:28.037Z,97583.91
2022-11-24T20:04:03.844Z,97584.47
2022-11-24T20:06:33.732Z,97587.25
2022-11-24T20:09:02.045Z,97586.13
2022-11-24T20:11:29.165Z,97592.25
2022-11-24T20:13:58.723Z,97590.06
2022-11-24T20:16:30.016Z,97586.16
2022-11-24T20:19:07.465Z,97588.94
2022-11-24T20:21:43.412Z,97600.34
2022-11-24T20:24:13.845Z,97609.16
2022-11-24T20:26:53.809Z,97602.41
2022-11-24T20:29:45.278Z,97606.28
2022-11-24T20:32:20.519Z,97605.81
2022-11-24T20:34:47.348Z,97614.56
2022-11-24T20:37:18.496Z,97607.22
2022-11-24T20:39:48.242Z,97611.84
2022-11-24T20:42:15.365Z,97624.19
2022-11-24T20:44:46.293Z,97616.38
2022-11-24T20:47:19.313Z,97623.34
2022-11-24T20:49:49.287Z,97624.19
2022-11-24T20:52:17.056Z,97626.22
2022-11-24T20:54:46.720Z,97620.44
2022-11-24T20:57:15.017Z,97621.38
2022-11-24T20:59:44.935Z,97623.03
2022-11-24T21:02:13.107Z,97621.38
2022-11-24T21:04:39.836Z,97624.50
2022-11-24T21:07:07.625Z,97629.88
2022-11-24T21:09:34.767Z,97630.22
2022-11-24T21:12:01.803Z,97639.59
2022-11-24T21:14:35.018Z,97649.06
2022-11-24T21:17:01.951Z,97658.69
2022-11-24T21:19:29.600Z,97647.28
2022-11-24T21:21:56.221Z,97656.16
2022-11-24T21:24:24.107Z,97650.59
2022-11-24T21:26:53.915Z,97653.28
2022-11-24T21:29:23.936Z,97655.69
2022-11-24T21:31:51.604Z,97653.91
2022-11-24T21:34:19.443Z,97646.81
2022-11-24T21:36:47.029Z,97649.75
2022-11-24T21:39:15.772Z,97645.75
2022-11-24T21:41:42.724Z,97651.94
2022-11-24T21:44:11.755Z,97647.16
2022-11-24T21:46:44.078Z,97653.56
2022-11-24T21:49:13.340Z,97646.97
2022-11-24T21:51:39.960Z,97655.41
2022-11-24T21:54:07.053Z,97640.84
2022-11-24T21:56:34.342Z,97636.09
2022-11-24T21:59:02.020Z,97640.84
2022-11-24T22:01:31.291Z,97633.84
2022-11-24T22:03:59.842Z,97649.50
2022-11-24T22:06:27.286Z,97654.56
2022-11-24T22:08:55.469Z,97652.09
2022-11-24T22:11:24.720Z,97653.75
2022-11-24T22:13:52.815Z,97654.56
2022-11-24T22:16:24.668Z,97662.59
2022-11-24T22:18:52.365Z,97660.00
2022-11-24T22:21:29.853Z,97673.91
2022-11-24T22:23:56.646Z,97665.63
2022-11-24T22:26:24.802Z,97674.56
2022-11-24T22:28:52.772Z,97681.94
2022-11-24T22:31:23.024Z,97682.16
2022-11-24T22:33:51.066Z,97673.88
2022-11-24T22:36:21.132Z,97685.94
2022-11-24T22:38:53.188Z,97690.69
2022-11-24T22:41:19.893Z,97691.00
2022-11-24T22:43:46.776Z,97686.91
2022-11-24T22:46:19.474Z,97699.09
2022-11-24T22:48:47.785Z,97710.34
2022-11-24T22:51:16.731Z,97714.47
2022-11-24T22:53:48.991Z,97713.28
2022-11-24T22:56:16.604Z,97714.28
2022-11-24T22:58:43.524Z,97709.94
2022-11-24T23:01:19.155Z,97709.00
2022-11-24T23:03:47.494Z,97714.53
2022-11-24T23:06:16.846Z,97713.53
2022-11-24T23:08:44.499Z,97702.31
2022-11-24T23:11:16.413Z,97712.84
2022-11-24T23:13:44.071Z,97708.00
2022-11-24T23:16:16.611Z,97713.41
2022-11-24T23:18:46.294Z,97714.59
2022-11-24T23:21:20.759Z,97728.34
2022-11-24T23:23:49.094Z,97733.75
2022-11-24T23:26:28.131Z,97739.09
2022-11-24T23:28:55.094Z,97732.06
2022-11-24T23:31:29.892Z,97726.22
2022-11-24T23:34:01.956Z,97731.44
2022-11-24T23:36:29.354Z,97737.88
2022-11-24T23:38:56.208Z,97736.78
2022-11-24T23:41:25.617Z,97740.00
2022-11-24T23:43:52.682Z,97737.00
2022-11-24T23:46:24.229Z,97739.97
2022-11-24T23:48:53.137Z,97735.84
2022-11-24T23:51:31.719Z,97735.19
2022-11-24T23:53:59.756Z,97726.81
2022-11-24T23:56:32.749Z,97735.25
2022-11-24T23:59:01.013Z,97732.06
